Time;durP1;ratioP1;P1;durP2;ratioP2;P2;SDS_P1;SDS_P2;PMS_P1;PMS_P2;Temp;Humidity;BMP_temperature;BMP_pressure;BME280_temperature;BME280_humidity;BME280_pressure;Samples;Min_cycle;Max_cycle;Signal;HPM_P1;HPM_P2
2021/01/20 00:01:11;;;;;;;0.10;0.10;;;;;;;13.98;69.76;96899.97;5031783;28;20056;-79
2021/01/20 00:03:37;;;;;;;0.10;0.10;;;;;;;13.38;72.49;96901.28;5042784;28;20056;-79
2021/01/20 00:06:06;;;;;;;4.00;0.15;;;;;;;13.80;71.27;96892.44;5047515;28;20044;-80
2021/01/20 00:08:34;;;;;;;0.10;0.10;;;;;;;13.62;71.59;96883.97;5040862;28;20048;-80
2021/01/20 00:11:01;;;;;;;0.10;0.10;;;;;;;13.63;72.54;96879.56;5057092;28;20048;-79
2021/01/20 00:13:28;;;;;;;0.28;0.10;;;;;;;13.63;71.27;96874.31;5040585;28;20130;-80
2021/01/20 00:15:55;;;;;;;0.25;0.10;;;;;;;13.29;73.10;96867.75;5028687;28;20048;-80
2021/01/20 00:18:21;;;;;;;0.20;0.20;;;;;;;13.63;71.92;96848.06;5035304;28;20040;-79
2021/01/20 00:20:48;;;;;;;2.05;0.00;;;;;;;13.43;72.10;96854.59;5060914;28;20063;-80
2021/01/20 00:23:14;;;;;;;0.10;0.10;;;;;;;13.73;71.48;96857.88;5036025;28;20056;-80
2021/01/20 00:25:41;;;;;;;0.17;0.17;;;;;;;13.56;72.34;96858.16;5018009;28;20170;-79
2021/01/20 00:28:11;;;;;;;0.22;0.17;;;;;;;13.89;71.11;96850.69;5035139;28;20060;-80
2021/01/20 00:30:40;;;;;;;1.10;0.10;;;;;;;13.48;72.19;96853.38;5035335;28;20048;-79
2021/01/20 00:33:06;;;;;;;0.57;0.45;;;;;;;13.56;72.50;96850.28;5021869;28;20072;-80
2021/01/20 00:35:33;;;;;;;0.17;0.17;;;;;;;13.63;72.42;96842.84;5061688;28;20056;-78
2021/01/20 00:38:01;;;;;;;0.35;0.30;;;;;;;13.69;72.02;96830.16;5047453;28;20423;-80
2021/01/20 00:40:30;;;;;;;0.90;0.20;;;;;;;14.12;70.34;96822.91;5014505;28;20127;-80
2021/01/20 00:43:00;;;;;;;0.40;0.30;;;;;;;14.09;70.16;96822.28;5042847;28;20063;-78
2021/01/20 00:45:28;;;;;;;0.30;0.30;;;;;;;13.77;71.66;96825.25;5037699;28;20055;-79
2021/01/20 00:47:55;;;;;;;0.35;0.35;;;;;;;13.19;73.74;96812.44;5057731;28;20040;-78
2021/01/20 00:50:21;;;;;;;1.85;0.25;;;;;;;13.49;72.90;96813.09;5042710;28;20082;-78
2021/01/20 00:52:48;;;;;;;0.63;0.20;;;;;;;13.47;72.38;96815.00;5028732;28;20333;-79
2021/01/20 00:55:16;;;;;;;0.30;0.20;;;;;;;13.13;73.73;96812.84;4983528;28;20045;-80
2021/01/20 00:57:47;;;;;;;0.32;0.25;;;;;;;13.70;71.77;96815.28;4976583;28;20508;-78
2021/01/20 01:00:14;;;;;;;1.08;0.63;;;;;;;13.88;71.17;96820.13;4954058;28;20053;-78
2021/01/20 01:02:41;;;;;;;0.40;0.25;;;;;;;13.84;71.80;96826.53;4980365;28;20161;-78
2021/01/20 01:05:08;;;;;;;1.38;0.30;;;;;;;14.00;71.03;96820.28;4957588;28;20100;-78
2021/01/20 01:07:36;;;;;;;0.32;0.22;;;;;;;14.02;70.41;96813.97;4983856;28;20475;-78
2021/01/20 01:10:03;;;;;;;0.22;0.20;;;;;;;14.16;69.73;96819.13;4995932;28;20046;-78
2021/01/20 01:12:30;;;;;;;1.50;0.43;;;;;;;14.00;70.24;96817.66;4986094;28;20050;-77
2021/01/20 01:14:57;;;;;;;0.10;0.10;;;;;;;13.69;71.31;96813.59;4963135;28;20050;-77
2021/01/20 01:17:23;;;;;;;0.20;0.20;;;;;;;13.97;70.76;96803.78;5002628;28;20129;-78
2021/01/20 01:19:51;;;;;;;1.30;0.30;;;;;;;14.17;70.17;96812.09;4980411;28;20054;-79
2021/01/20 01:22:18;;;;;;;0.95;0.43;;;;;;;13.92;71.15;96813.75;5005073;28;20045;-77
2021/01/20 01:24:46;;;;;;;0.10;0.10;;;;;;;13.80;71.29;96809.31;4980800;28;20141;-79
2021/01/20 01:27:13;;;;;;;2.10;0.20;;;;;;;13.94;71.01;96801.38;5042692;28;20048;-78
2021/01/20 01:29:41;;;;;;;0.25;0.25;;;;;;;13.75;72.15;96821.06;5029408;28;20443;-78
2021/01/20 01:32:07;;;;;;;0.28;0.28;;;;;;;13.62;72.53;96818.38;5036848;28;20080;-78
2021/01/20 01:34:37;;;;;;;0.63;0.10;;;;;;;13.88;72.03;96817.50;5027743;28;20162;-77
2021/01/20 01:37:04;;;;;;;1.85;0.17;;;;;;;13.77;72.20;96821.78;5032541;28;20519;-78
2021/01/20 01:39:34;;;;;;;0.32;0.30;;;;;;;14.17;70.27;96825.22;5019666;28;20099;-79
2021/01/20 01:42:03;;;;;;;0.75;0.15;;;;;;;13.97;71.79;96829.19;5002026;28;20064;-79
2021/01/20 01:44:33;;;;;;;0.68;0.15;;;;;;;13.77;72.55;96834.91;5027890;28;20057;-79
2021/01/20 01:47:01;;;;;;;0.13;0.13;;;;;;;14.09;71.40;96836.25;5016238;28;20411;-79
2021/01/20 01:49:30;;;;;;;0.00;0.00;;;;;;;14.13;71.05;96831.63;5010085;28;20515;-78
2021/01/20 01:52:00;;;;;;;0.10;0.10;;;;;;;14.03;71.77;96825.31;5004399;28;20150;-77
2021/01/20 01:54:28;;;;;;;1.05;0.22;;;;;;;14.30;70.70;96826.91;5011122;28;20139;-79
2021/01/20 01:56:56;;;;;;;0.30;0.10;;;;;;;14.40;70.42;96822.75;5023219;28;20080;-80
2021/01/20 01:59:23;;;;;;;2.97;0.20;;;;;;;14.13;70.79;96827.22;5010907;28;20057;-79
2021/01/20 02:01:56;;;;;;;0.10;0.10;;;;;;;14.38;69.68;96824.66;4973460;28;20132;-78
2021/01/20 02:04:25;;;;;;;1.02;0.40;;;;;;;14.01;70.89;96821.94;5028126;28;20111;-79
2021/01/20 02:06:57;;;;;;;3.45;0.20;;;;;;;14.15;70.74;96811.38;5034502;28;20095;-79
2021/01/20 02:09:24;;;;;;;3.22;0.20;;;;;;;14.13;71.35;96814.09;5065960;28;20044;-79
2021/01/20 02:12:28;;;;;;;0.25;0.13;;;;;;;14.26;71.02;96814.94;5038459;28;20044;-79
2021/01/20 02:15:07;;;;;;;0.68;0.20;;;;;;;14.45;70.36;96813.72;5043793;28;20072;-79
2021/01/20 02:18:02;;;;;;;4.47;0.20;;;;;;;14.11;70.99;96815.97;5045316;28;20124;-79
2021/01/20 02:21:26;;;;;;;0.55;0.17;;;;;;;14.03;71.73;96805.16;5063089;28;20052;-79
2021/01/20 02:23:57;;;;;;;1.00;0.10;;;;;;;14.12;71.61;96801.91;4959564;28;20543;-79
2021/01/20 02:27:20;;;;;;;1.38;0.10;;;;;;;14.47;69.92;96796.91;4947804;28;20059;-79
2021/01/20 02:30:07;;;;;;;0.10;0.10;;;;;;;14.71;69.02;96794.38;4886461;29;20059;-78
2021/01/20 02:32:35;;;;;;;0.03;0.03;;;;;;;14.80;68.69;96797.19;4888533;29;20144;-77
2021/01/20 02:35:04;;;;;;;1.00;0.17;;;;;;;14.74;69.42;96804.66;4886720;29;20101;-79
2021/01/20 02:37:33;;;;;;;0.77;0.22;;;;;;;14.49;69.85;96799.41;4865604;29;20469;-79
2021/01/20 02:40:05;;;;;;;1.48;0.10;;;;;;;14.95;68.70;96797.06;4881141;29;20064;-80
2021/01/20 02:42:39;;;;;;;3.73;0.30;;;;;;;15.11;68.00;96781.84;4889535;29;20186;-80
2021/01/20 02:45:09;;;;;;;2.67;0.50;;;;;;;14.24;70.72;96768.75;4870312;29;20449;-81
2021/01/20 02:47:36;;;;;;;3.28;0.80;;;;;;;14.72;69.09;96778.47;4871638;29;20105;-79
2021/01/20 02:50:06;;;;;;;0.75;0.50;;;;;;;13.92;71.18;96777.00;4883981;29;20087;-80
2021/01/20 02:52:57;;;;;;;0.80;0.45;;;;;;;14.26;70.29;96762.41;4888612;29;20061;-79
2021/01/20 02:55:26;;;;;;;0.50;0.50;;;;;;;14.55;69.52;96760.44;4922932;28;20050;-78
2021/01/20 02:57:59;;;;;;;0.60;0.55;;;;;;;14.57;69.41;96753.31;4927825;28;20079;-78
2021/01/20 03:00:32;;;;;;;0.50;0.50;;;;;;;14.25;69.90;96750.22;4950990;28;20059;-79
2021/01/20 03:03:03;;;;;;;0.38;0.38;;;;;;;14.07;71.21;96751.50;5025925;28;20063;-79
2021/01/20 03:05:33;;;;;;;0.30;0.30;;;;;;;14.08;70.59;96750.56;5060281;28;20681;-79
2021/01/20 03:08:01;;;;;;;0.30;0.30;;;;;;;14.21;69.92;96734.78;5026468;28;20064;-79
2021/01/20 03:10:28;;;;;;;0.47;0.40;;;;;;;14.05;70.50;96735.03;5042868;28;20063;-79
2021/01/20 03:12:55;;;;;;;0.32;0.32;;;;;;;14.22;69.78;96732.06;5048011;28;20044;-77
2021/01/20 03:15:26;;;;;;;0.70;0.52;;;;;;;14.69;68.17;96736.66;5041035;28;20044;-77
2021/01/20 03:17:52;;;;;;;0.30;0.30;;;;;;;14.19;69.92;96729.69;5042049;28;20071;-78
2021/01/20 03:20:18;;;;;;;0.82;0.73;;;;;;;14.09;70.90;96735.66;5027817;28;20063;-78
2021/01/20 03:22:45;;;;;;;1.08;1.08;;;;;;;14.28;69.53;96744.78;5036055;28;20056;-78
2021/01/20 03:25:14;;;;;;;1.52;1.20;;;;;;;14.13;70.16;96742.38;5039921;28;20044;-78
2021/01/20 03:27:41;;;;;;;1.38;1.27;;;;;;;14.58;68.99;96743.63;5037649;28;20048;-79
2021/01/20 03:30:07;;;;;;;0.88;0.80;;;;;;;14.10;70.68;96742.59;5045315;28;20044;-78
2021/01/20 03:32:35;;;;;;;0.80;0.80;;;;;;;14.49;69.43;96746.88;5041056;28;20049;-79
2021/01/20 03:35:03;;;;;;;0.57;0.55;;;;;;;14.31;69.46;96748.97;5057056;28;20458;-79
2021/01/20 03:37:29;;;;;;;0.50;0.50;;;;;;;14.60;68.62;96747.81;5039824;28;20517;-79
2021/01/20 03:39:56;;;;;;;8.48;0.40;;;;;;;14.62;68.94;96747.72;5045351;28;20064;-79
2021/01/20 03:42:25;;;;;;;0.57;0.30;;;;;;;14.07;70.46;96745.41;5038364;28;20061;-78
2021/01/20 03:44:52;;;;;;;0.30;0.30;;;;;;;14.26;70.91;96751.06;5024296;28;20055;-78
2021/01/20 03:47:18;;;;;;;2.45;0.30;;;;;;;14.37;70.54;96748.59;5058092;28;20479;-80
2021/01/20 03:49:45;;;;;;;1.50;0.40;;;;;;;14.45;70.13;96741.00;5026568;28;20048;-79
2021/01/20 03:52:16;;;;;;;0.85;0.40;;;;;;;14.41;69.58;96739.53;5026112;28;20044;-79
2021/01/20 03:54:42;;;;;;;0.50;0.40;;;;;;;14.23;70.31;96727.66;5044967;28;20052;-78
2021/01/20 03:57:10;;;;;;;0.20;0.20;;;;;;;13.98;70.75;96726.72;5043375;28;20402;-78
2021/01/20 03:59:36;;;;;;;0.63;0.45;;;;;;;14.00;70.66;96729.25;5042689;28;20472;-78
2021/01/20 04:02:05;;;;;;;0.35;0.30;;;;;;;14.40;69.03;96724.72;5035608;28;20057;-78
2021/01/20 04:04:32;;;;;;;0.25;0.20;;;;;;;13.79;70.41;96725.44;5019499;28;20060;-79
2021/01/20 04:07:03;;;;;;;0.20;0.20;;;;;;;14.14;70.12;96728.31;5034270;28;20049;-79
2021/01/20 04:09:29;;;;;;;0.10;0.10;;;;;;;13.90;70.58;96717.69;5045158;28;20417;-78
2021/01/20 04:11:56;;;;;;;0.47;0.10;;;;;;;13.82;70.48;96707.72;5056377;28;20044;-79
2021/01/20 04:14:23;;;;;;;0.73;0.25;;;;;;;13.90;70.74;96713.28;5044743;28;20059;-79
2021/01/20 04:16:50;;;;;;;5.18;0.43;;;;;;;14.13;70.33;96716.13;5055403;28;20411;-79
2021/01/20 04:19:16;;;;;;;0.50;0.50;;;;;;;14.27;69.40;96718.63;5046163;28;20049;-79
2021/01/20 04:21:43;;;;;;;0.70;0.70;;;;;;;14.25;69.64;96720.50;5057730;28;20411;-79
2021/01/20 04:24:10;;;;;;;0.70;0.70;;;;;;;14.09;70.31;96709.41;5054733;28;20052;-79
2021/01/20 04:26:37;;;;;;;0.70;0.70;;;;;;;13.99;70.38;96701.31;5043265;28;20060;-79
2021/01/20 04:29:03;;;;;;;0.40;0.40;;;;;;;13.92;71.02;96693.03;5023018;28;20056;-77
2021/01/20 04:31:30;;;;;;;0.80;0.80;;;;;;;13.72;70.81;96693.53;5039692;28;20068;-79
2021/01/20 04:33:57;;;;;;;0.60;0.60;;;;;;;13.61;72.19;96697.84;5054038;28;20045;-79
2021/01/20 04:36:24;;;;;;;0.57;0.50;;;;;;;14.29;69.38;96693.94;5024762;28;20128;-78
2021/01/20 04:38:51;;;;;;;1.17;0.30;;;;;;;14.51;68.43;96681.94;5044047;28;20151;-78
2021/01/20 04:41:18;;;;;;;1.35;0.52;;;;;;;14.30;68.78;96671.13;5042078;28;20407;-79
2021/01/20 04:43:44;;;;;;;1.85;0.20;;;;;;;14.29;68.62;96665.03;5034956;28;20115;-77
2021/01/20 04:46:14;;;;;;;0.57;0.10;;;;;;;14.46;68.06;96660.44;5046351;28;20036;-78
2021/01/20 04:48:43;;;;;;;0.15;0.03;;;;;;;14.09;69.53;96665.63;5062522;28;20052;-79
2021/01/20 04:51:10;;;;;;;0.10;0.10;;;;;;;13.83;70.14;96654.28;5039634;28;20076;-78
2021/01/20 04:53:38;;;;;;;0.10;0.10;;;;;;;13.46;72.15;96657.75;5040022;28;20049;-78
2021/01/20 04:56:11;;;;;;;0.20;0.10;;;;;;;13.82;70.45;96655.22;5033923;28;20045;-78
2021/01/20 04:58:38;;;;;;;0.10;0.10;;;;;;;13.95;70.50;96648.22;5044301;28;20037;-78
2021/01/20 05:01:05;;;;;;;0.85;0.20;;;;;;;14.30;69.04;96652.75;5054707;28;20052;-79
2021/01/20 05:03:32;;;;;;;0.45;0.15;;;;;;;13.70;71.52;96644.75;5023723;28;20059;-79
2021/01/20 05:06:00;;;;;;;0.93;0.10;;;;;;;13.39;73.09;96641.56;5055796;28;20437;-79
2021/01/20 05:08:27;;;;;;;0.15;0.03;;;;;;;13.59;72.81;96645.47;5056799;28;20510;-79
2021/01/20 05:10:54;;;;;;;0.40;0.10;;;;;;;13.69;71.69;96648.31;5034337;28;20708;-78
2021/01/20 05:13:28;;;;;;;0.17;0.10;;;;;;;13.84;71.40;96642.00;5043324;28;20404;-77
2021/01/20 05:15:56;;;;;;;0.00;0.00;;;;;;;13.34;73.28;96632.31;5040388;28;20048;-78
2021/01/20 05:18:24;;;;;;;0.45;0.05;;;;;;;13.15;73.80;96632.72;5000118;28;20065;-79
2021/01/20 05:20:51;;;;;;;0.98;0.03;;;;;;;13.78;71.63;96619.66;4999458;28;20049;-79
2021/01/20 05:23:24;;;;;;;0.10;0.10;;;;;;;13.82;70.98;96623.75;5021178;28;20054;-77
2021/01/20 05:25:51;;;;;;;3.00;0.10;;;;;;;13.51;72.18;96616.31;4989949;28;20527;-78
2021/01/20 05:28:26;;;;;;;0.03;0.03;;;;;;;14.23;69.42;96612.97;4991068;28;20125;-78
2021/01/20 05:31:02;;;;;;;0.20;0.10;;;;;;;13.80;70.72;96598.56;4997124;28;20057;-77
2021/01/20 05:33:37;;;;;;;1.65;0.17;;;;;;;14.03;70.78;96589.91;5006894;28;20960;-79
2021/01/20 05:36:10;;;;;;;0.10;0.10;;;;;;;13.25;72.63;96586.59;4998257;28;20069;-77
2021/01/20 05:38:51;;;;;;;0.95;0.10;;;;;;;13.62;72.26;96589.34;5013730;28;20044;-78
2021/01/20 05:41:24;;;;;;;0.00;0.00;;;;;;;13.79;71.03;96589.84;5000993;28;20424;-78
2021/01/20 05:43:52;;;;;;;0.10;0.03;;;;;;;13.56;71.15;96593.22;5017429;28;20512;-79
2021/01/20 05:46:42;;;;;;;0.00;0.00;;;;;;;13.73;71.65;96581.56;5008336;28;20465;-78
2021/01/20 05:49:22;;;;;;;0.15;0.10;;;;;;;13.75;70.93;96580.53;5025247;28;20493;-78
2021/01/20 05:51:49;;;;;;;0.32;0.05;;;;;;;13.30;71.99;96586.28;5038311;28;20049;-78
2021/01/20 05:54:29;;;;;;;0.17;0.10;;;;;;;13.64;71.08;96577.78;5041667;28;20084;-79
2021/01/20 05:57:19;;;;;;;2.28;0.00;;;;;;;13.70;71.35;96572.13;5047759;28;20070;-77
2021/01/20 05:59:48;;;;;;;0.47;0.10;;;;;;;13.65;70.74;96566.38;5005879;28;20395;-77
2021/01/20 06:02:17;;;;;;;2.97;0.28;;;;;;;13.79;71.11;96563.63;5031560;28;20037;-77
2021/01/20 06:04:44;;;;;;;1.30;0.20;;;;;;;13.78;70.85;96568.97;5045005;28;20067;-77
2021/01/20 06:07:15;;;;;;;0.73;0.03;;;;;;;14.18;69.34;96570.47;5039407;28;20048;-78
2021/01/20 06:09:44;;;;;;;0.20;0.10;;;;;;;13.78;70.17;96568.97;5013897;28;20089;-80
2021/01/20 06:12:12;;;;;;;0.00;0.00;;;;;;;13.73;70.63;96563.19;5045608;28;20367;-78
2021/01/20 06:14:40;;;;;;;0.20;0.05;;;;;;;13.87;69.53;96565.69;5036593;28;20048;-78
2021/01/20 06:17:31;;;;;;;0.45;0.13;;;;;;;13.56;71.27;96571.41;5038653;28;20056;-78
2021/01/20 06:20:00;;;;;;;0.10;0.10;;;;;;;13.87;69.68;96569.16;5014165;28;20407;-77
2021/01/20 06:22:29;;;;;;;1.27;0.22;;;;;;;13.45;71.84;96565.13;5061276;28;20047;-79
2021/01/20 06:25:01;;;;;;;0.10;0.10;;;;;;;13.87;70.09;96571.78;4995330;28;20053;-78
2021/01/20 06:27:37;;;;;;;1.45;0.20;;;;;;;13.72;71.27;96575.47;4989385;28;20045;-78
2021/01/20 06:30:25;;;;;;;0.28;0.10;;;;;;;13.88;70.76;96576.09;5033954;28;20049;-77
2021/01/20 06:32:53;;;;;;;1.15;0.43;;;;;;;13.48;71.41;96572.75;5024327;28;20049;-77
2021/01/20 06:35:20;;;;;;;0.35;0.10;;;;;;;13.68;71.31;96573.16;5030915;28;20102;-77
2021/01/20 06:37:48;;;;;;;0.28;0.10;;;;;;;13.65;70.47;96576.00;5032620;28;20048;-78
2021/01/20 06:40:21;;;;;;;0.95;0.20;;;;;;;14.18;69.06;96575.72;5012285;28;20412;-78
2021/01/20 06:42:48;;;;;;;0.17;0.10;;;;;;;13.72;70.99;96578.09;5030400;28;20140;-78
2021/01/20 06:45:35;;;;;;;0.52;0.30;;;;;;;14.02;70.44;96569.03;5028395;28;20051;-79
2021/01/20 06:48:05;;;;;;;0.75;0.47;;;;;;;13.94;69.82;96577.44;5038345;28;20496;-80
2021/01/20 06:50:55;;;;;;;2.05;0.28;;;;;;;13.63;70.81;96578.72;5034078;28;20137;-78
2021/01/20 06:53:24;;;;;;;1.05;0.40;;;;;;;13.93;70.46;96568.72;5016960;28;20053;-77
2021/01/20 06:55:50;;;;;;;0.60;0.25;;;;;;;13.80;70.67;96574.94;5044768;28;20509;-76
2021/01/20 06:58:26;;;;;;;0.32;0.22;;;;;;;14.15;69.18;96572.47;5028729;28;20106;-78
2021/01/20 07:00:58;;;;;;;0.20;0.20;;;;;;;13.72;70.21;96578.09;5012004;28;20122;-79
2021/01/20 07:03:42;;;;;;;0.10;0.10;;;;;;;13.92;70.25;96563.59;5006437;28;20040;-80
2021/01/20 07:06:33;;;;;;;0.90;0.20;;;;;;;13.95;70.09;96569.47;4980625;28;20062;-80
2021/01/20 07:09:05;;;;;;;0.77;0.20;;;;;;;13.72;70.60;96564.97;5015500;28;20566;-78
2021/01/20 07:11:32;;;;;;;0.38;0.10;;;;;;;13.94;71.04;96562.53;5009754;28;20057;-79
2021/01/20 07:14:02;;;;;;;0.10;0.03;;;;;;;14.36;69.53;96558.66;4987619;28;20437;-80
2021/01/20 07:16:29;;;;;;;1.40;0.20;;;;;;;13.83;71.45;96564.22;5021351;28;20097;-80
2021/01/20 07:18:57;;;;;;;0.28;0.10;;;;;;;13.95;71.14;96555.50;5021404;28;20507;-80
2021/01/20 07:21:23;;;;;;;0.10;0.10;;;;;;;14.24;70.15;96559.53;5026447;28;20047;-79
2021/01/20 07:23:59;;;;;;;0.98;0.20;;;;;;;14.17;70.36;96549.56;5005819;28;20053;-81
2021/01/20 07:26:35;;;;;;;0.52;0.40;;;;;;;14.13;70.60;96550.72;4980085;28;20049;-81
2021/01/20 07:29:30;;;;;;;0.20;0.20;;;;;;;14.21;70.25;96543.13;4996717;28;20045;-80
2021/01/20 07:32:02;;;;;;;0.73;0.20;;;;;;;14.15;70.29;96547.03;4891511;28;20666;-80
2021/01/20 07:34:40;;;;;;;0.32;0.20;;;;;;;14.04;70.86;96546.13;4944089;28;20460;-80
2021/01/20 07:37:14;;;;;;;2.08;0.45;;;;;;;13.98;71.41;96536.91;4955115;28;20086;-80
2021/01/20 07:39:42;;;;;;;0.20;0.20;;;;;;;14.20;70.56;96539.66;4941734;28;20059;-80
2021/01/20 07:42:09;;;;;;;2.05;0.20;;;;;;;14.46;69.49;96535.19;4947180;28;20063;-79
2021/01/20 07:44:46;;;;;;;0.80;0.20;;;;;;;13.66;71.71;96539.19;4942381;28;20137;-80
2021/01/20 07:47:13;;;;;;;0.20;0.20;;;;;;;14.18;70.11;96535.50;4936954;28;20057;-79
2021/01/20 07:49:56;;;;;;;0.15;0.10;;;;;;;14.23;70.02;96528.97;4927654;28;20497;-80
2021/01/20 07:52:24;;;;;;;0.20;0.20;;;;;;;14.21;70.08;96532.63;4926131;28;20410;-80
2021/01/20 07:54:51;;;;;;;0.20;0.20;;;;;;;14.05;70.82;96534.69;4956492;28;20134;-80
2021/01/20 07:57:19;;;;;;;1.17;0.30;;;;;;;14.32;69.89;96535.31;4943138;28;20130;-78
2021/01/20 08:00:05;;;;;;;0.65;0.20;;;;;;;14.12;70.47;96539.38;4944767;28;20063;-79
2021/01/20 08:02:32;;;;;;;0.43;0.13;;;;;;;13.76;71.89;96542.84;4939182;28;20371;-80
2021/01/20 08:05:02;;;;;;;0.40;0.17;;;;;;;13.92;71.83;96543.44;4930450;28;20050;-82
2021/01/20 08:07:30;;;;;;;0.20;0.20;;;;;;;14.06;70.17;96529.31;4914654;28;20065;-80
2021/01/20 08:09:57;;;;;;;0.10;0.10;;;;;;;13.95;71.02;96537.97;5020538;28;20060;-81
2021/01/20 08:12:33;;;;;;;0.43;0.30;;;;;;;14.23;69.90;96536.84;5013963;28;20053;-79
2021/01/20 08:15:03;;;;;;;0.47;0.10;;;;;;;14.11;70.20;96529.81;4990221;28;21066;-79
2021/01/20 08:17:32;;;;;;;0.90;0.22;;;;;;;14.35;69.17;96533.31;5004073;28;20044;-80
2021/01/20 08:20:01;;;;;;;0.10;0.10;;;;;;;14.51;69.04;96534.84;5009371;28;21642;-80
2021/01/20 08:22:28;;;;;;;0.40;0.20;;;;;;;14.23;69.38;96531.59;4999077;28;20092;-80
2021/01/20 08:24:56;;;;;;;3.60;0.22;;;;;;;13.90;70.53;96528.75;5004953;28;20872;-79
2021/01/20 08:27:25;;;;;;;0.90;0.32;;;;;;;14.04;70.34;96525.97;5023341;28;20052;-81
2021/01/20 08:29:56;;;;;;;0.55;0.10;;;;;;;13.92;70.45;96522.44;5003535;28;20045;-79
2021/01/20 08:32:23;;;;;;;0.13;0.10;;;;;;;14.02;70.25;96522.63;5023227;28;20040;-78
2021/01/20 08:34:52;;;;;;;0.20;0.10;;;;;;;14.66;67.77;96516.19;5021303;28;20079;-79
2021/01/20 08:37:41;;;;;;;0.13;0.10;;;;;;;13.86;69.53;96519.44;5038897;28;20060;-79
2021/01/20 08:40:15;;;;;;;0.20;0.20;;;;;;;14.19;69.28;96505.66;5006375;28;20064;-80
2021/01/20 08:42:44;;;;;;;0.30;0.10;;;;;;;14.53;67.84;96506.69;4982045;28;20072;-79
2021/01/20 08:45:11;;;;;;;0.25;0.25;;;;;;;14.60;67.26;96503.50;5053061;28;20047;-79
2021/01/20 08:48:09;;;;;;;1.00;0.10;;;;;;;13.92;69.44;96509.31;5036066;28;20048;-78
2021/01/20 08:50:44;;;;;;;0.20;0.20;;;;;;;14.40;67.78;96491.81;5020028;28;20053;-78
2021/01/20 08:53:25;;;;;;;0.20;0.10;;;;;;;13.84;69.82;96502.94;5059865;28;20143;-80
2021/01/20 08:55:56;;;;;;;0.28;0.10;;;;;;;13.75;69.90;96501.81;5014166;28;20115;-78
2021/01/20 08:58:28;;;;;;;0.40;0.20;;;;;;;13.93;69.21;96499.66;4994305;28;20040;-81
2021/01/20 09:00:58;;;;;;;1.98;0.15;;;;;;;13.72;70.52;96488.06;4983372;28;20068;-80
2021/01/20 09:03:32;;;;;;;0.13;0.10;;;;;;;13.53;70.87;96493.75;5005610;28;20101;-78
2021/01/20 09:06:03;;;;;;;0.68;0.38;;;;;;;13.81;70.23;96490.88;4993965;28;20053;-79
2021/01/20 09:08:31;;;;;;;8.48;0.77;;;;;;;14.00;69.41;96500.91;4994731;28;20476;-78
2021/01/20 09:10:59;;;;;;;23.90;1.65;;;;;;;13.78;71.17;96492.88;4993660;28;20045;-78
2021/01/20 09:13:27;;;;;;;3.63;0.45;;;;;;;13.85;70.91;96492.34;4972653;28;20504;-79
2021/01/20 09:15:55;;;;;;;14.60;1.52;;;;;;;14.08;70.23;96495.94;4969450;28;20188;-82
2021/01/20 09:18:25;;;;;;;0.55;0.30;;;;;;;14.43;68.89;96488.16;4985838;28;20424;-80
2021/01/20 09:21:01;;;;;;;0.60;0.28;;;;;;;14.39;68.98;96482.25;4952334;28;20076;-82
2021/01/20 09:23:28;;;;;;;2.40;0.35;;;;;;;13.93;70.67;96479.50;4996732;28;20065;-81
2021/01/20 09:25:59;;;;;;;0.43;0.35;;;;;;;14.26;69.17;96483.25;4981261;28;20052;-79
2021/01/20 09:28:27;;;;;;;0.70;0.20;;;;;;;14.21;69.06;96467.00;5000404;28;20547;-78
2021/01/20 09:30:55;;;;;;;1.08;0.55;;;;;;;13.98;70.25;96471.28;4992645;28;20052;-79
2021/01/20 09:33:25;;;;;;;0.82;0.30;;;;;;;13.83;71.14;96465.38;5009084;28;20508;-79
2021/01/20 09:35:54;;;;;;;;;;;;;;;14.61;68.42;96472.81;4993728;28;20052;-81
2021/01/20 09:38:21;;;;;;;1.85;0.40;;;;;;;14.65;68.06;96463.75;5023527;28;19920;-80
2021/01/20 09:40:48;;;;;;;4.60;1.52;;;;;;;14.26;69.78;96470.13;5011040;28;20075;-80
2021/01/20 09:43:16;;;;;;;1.33;1.00;;;;;;;14.26;70.54;96465.72;5027551;28;20048;-79
2021/01/20 09:45:44;;;;;;;1.65;0.80;;;;;;;14.39;69.92;96463.88;5017264;28;20048;-79
2021/01/20 09:48:11;;;;;;;0.57;0.30;;;;;;;14.33;69.50;96464.31;5016558;28;20054;-81
2021/01/20 09:50:38;;;;;;;0.95;0.70;;;;;;;14.39;69.84;96450.75;4988790;28;20147;-79
2021/01/20 09:53:05;;;;;;;5.72;0.60;;;;;;;14.24;70.48;96435.28;5007352;28;20113;-80
2021/01/20 09:55:36;;;;;;;0.80;0.60;;;;;;;14.31;70.33;96439.94;4986999;28;20048;-78
2021/01/20 09:58:06;;;;;;;1.35;0.73;;;;;;;14.38;70.42;96435.13;4994441;28;20092;-79
2021/01/20 10:00:37;;;;;;;3.08;0.68;;;;;;;14.62;70.07;96433.28;4998497;28;20060;-79
2021/01/20 10:03:10;;;;;;;0.98;0.40;;;;;;;14.75;69.88;96439.28;4991274;28;20144;-80
2021/01/20 10:05:41;;;;;;;1.17;0.45;;;;;;;14.43;70.13;96430.38;4979764;28;20060;-82
2021/01/20 10:08:08;;;;;;;1.95;0.28;;;;;;;14.30;71.06;96429.56;5009547;28;20471;-81
2021/01/20 10:10:36;;;;;;;0.73;0.47;;;;;;;14.49;70.78;96424.63;5022115;28;20049;-81
2021/01/20 10:13:04;;;;;;;0.90;0.43;;;;;;;14.12;71.80;96423.03;4995084;28;20050;-80
2021/01/20 10:15:32;;;;;;;0.57;0.30;;;;;;;14.35;70.80;96411.66;5004903;28;20650;-80
2021/01/20 10:18:00;;;;;;;1.17;0.50;;;;;;;14.13;71.41;96412.44;4987918;28;20439;-80
2021/01/20 10:20:27;;;;;;;1.35;0.68;;;;;;;14.40;70.59;96412.19;4990035;28;20108;-80
2021/01/20 10:22:53;;;;;;;3.03;0.80;;;;;;;14.35;71.19;96402.00;4995441;28;20045;-79
2021/01/20 10:25:29;;;;;;;8.35;1.45;;;;;;;14.39;70.29;96397.38;5027562;28;20057;-79
2021/01/20 10:27:59;;;;;;;3.15;0.50;;;;;;;14.08;71.22;96401.44;4991065;28;20069;-79
2021/01/20 10:30:30;;;;;;;1.63;0.43;;;;;;;14.37;70.79;96392.28;5001354;28;20490;-78
2021/01/20 10:32:56;;;;;;;1.30;0.50;;;;;;;14.10;71.55;96385.59;5012185;28;20444;-78
2021/01/20 10:35:24;;;;;;;1.48;0.70;;;;;;;14.26;71.34;96386.94;5018805;28;20045;-79
2021/01/20 10:37:51;;;;;;;2.88;0.63;;;;;;;14.18;71.90;96377.97;4961346;28;20142;-77
2021/01/20 10:40:18;;;;;;;0.98;0.70;;;;;;;14.29;70.75;96378.81;4932630;28;20054;-78
2021/01/20 10:42:46;;;;;;;2.85;0.65;;;;;;;14.63;70.00;96366.63;4920324;28;20110;-78
2021/01/20 10:45:16;;;;;;;1.73;0.68;;;;;;;14.24;71.87;96356.50;4938731;28;20054;-80
2021/01/20 10:47:43;;;;;;;1.42;0.80;;;;;;;14.31;71.38;96363.81;4918994;28;20058;-79
2021/01/20 10:50:11;;;;;;;1.05;0.70;;;;;;;14.24;71.12;96352.09;4940723;28;20047;-81
2021/01/20 10:52:37;;;;;;;1.25;0.60;;;;;;;14.35;70.95;96340.78;4945124;28;20058;-85
2021/01/20 10:55:05;;;;;;;2.10;0.90;;;;;;;13.91;72.18;96338.84;4928698;28;20163;-86
2021/01/20 10:57:32;;;;;;;1.92;0.80;;;;;;;14.00;72.33;96338.19;4960512;28;20051;-80
2021/01/20 10:59:59;;;;;;;2.05;0.90;;;;;;;14.01;72.24;96339.00;4958836;28;20046;-83
2021/01/20 11:02:25;;;;;;;2.20;1.02;;;;;;;14.28;71.30;96340.41;4948386;28;20128;-82
2021/01/20 11:04:52;;;;;;;1.25;0.70;;;;;;;13.71;73.45;96321.97;4944007;28;20038;-80
2021/01/20 11:07:19;;;;;;;6.00;1.25;;;;;;;13.51;74.04;96320.81;4965498;28;20050;-80
2021/01/20 11:09:48;;;;;;;1.73;0.90;;;;;;;13.91;72.84;96312.59;4932349;28;20042;-82
2021/01/20 11:12:14;;;;;;;1.15;0.85;;;;;;;13.81;73.17;96312.44;4955730;28;20047;-80
2021/01/20 11:14:42;;;;;;;2.70;1.08;;;;;;;13.39;73.97;96316.44;4962069;28;20143;-81
2021/01/20 11:17:09;;;;;;;2.42;1.17;;;;;;;13.71;73.64;96308.84;4965132;28;20060;-82
2021/01/20 11:19:37;;;;;;;1.88;1.05;;;;;;;13.65;73.71;96295.34;4986866;28;20053;-84
2021/01/20 11:22:09;;;;;;;2.90;1.20;;;;;;;13.88;72.93;96297.94;4988011;28;20049;-84
2021/01/20 11:24:37;;;;;;;;;;;;;;;13.39;74.46;96294.63;5029175;28;20076;-79
2021/01/20 11:27:11;;;;;;;8.90;1.85;;;;;;;13.32;74.89;96282.91;5004243;28;20060;-80
2021/01/20 11:29:40;;;;;;;16.38;2.05;;;;;;;13.73;73.14;96280.72;5022263;28;20098;-79
2021/01/20 11:32:07;;;;;;;3.00;1.08;;;;;;;13.66;74.19;96271.63;5017533;28;20068;-80
2021/01/20 11:34:41;;;;;;;1.25;0.90;;;;;;;13.34;75.32;96260.03;5036825;28;20049;-84
2021/01/20 11:37:11;;;;;;;1.35;0.80;;;;;;;13.93;73.21;96266.09;5031837;28;20066;-81
2021/01/20 11:39:37;;;;;;;4.32;0.85;;;;;;;13.97;72.55;96259.66;5024333;28;20041;-78
2021/01/20 11:42:05;;;;;;;1.63;0.90;;;;;;;13.61;73.49;96259.81;5020694;28;20099;-80
2021/01/20 11:44:31;;;;;;;3.13;0.60;;;;;;;13.57;74.04;96255.75;5024623;28;20426;-79
2021/01/20 11:46:58;;;;;;;7.65;1.48;;;;;;;13.67;74.10;96251.50;5021728;28;20103;-81
2021/01/20 11:49:26;;;;;;;1.88;0.85;;;;;;;13.70;73.88;96241.59;5026079;28;20440;-86